Hamlin, Kentucky
Current Conditions -  °F | °C
As of 3:15 PM on Tuesday 27 Jan 2015 (Local Time) from KCEY Reporting Station
Overcast Overcast  
Wind Chill: 36°   Ceiling: 3500
Heat Index: 41°   Visibility: 10mi
Dew Point: 30°   Wind: 8mph
Humidity: 65%   Direction: 10°N
Pressure: 30.13"   Gusts: NA
Location:  36.6°N, 88.08°W
Report Text: KCEY 272115Z AUTO 01007KT 10SM OVC035 05/M01 A3013 RMK AO1
Loading
Personal Weather Stations






























Interactive Weather Map New forecast layout! Learn more

10-Day Weather Forecast

Advertisements
Track Severe Weather on mobile